Time;durP1;ratioP1;P1;durP2;ratioP2;P2;SDS_P1;SDS_P2;PMS_P1;PMS_P2;Temp;Humidity;BMP_temperature;BMP_pressure;BME280_temperature;BME280_humidity;BME280_pressure;Samples;Min_cycle;Max_cycle;Signal;HPM_P1;HPM_P2
2022/01/10 00:01:33;;;;;;;;;;;5.70;99.90;;;;;;5057719;28;19909;-59
2022/01/10 00:03:59;;;;;;;;;;;5.60;99.90;;;;;;5057604;28;19912;-60
2022/01/10 00:06:24;;;;;;;;;;;5.60;99.90;;;;;;5058170;28;19948;-59
2022/01/10 00:08:50;;;;;;;;;;;5.60;99.90;;;;;;5068905;28;19913;-60
2022/01/10 00:11:15;;;;;;;;;;;5.60;99.90;;;;;;5055004;28;19960;-60
2022/01/10 00:13:41;;;;;;;;;;;5.50;99.90;;;;;;5067851;28;20059;-58
2022/01/10 00:16:06;;;;;;;;;;;5.50;99.90;;;;;;5066690;28;19947;-60
2022/01/10 00:18:32;;;;;;;;;;;5.50;99.90;;;;;;5064499;28;20003;-60
2022/01/10 00:20:57;;;;;;;;;;;5.50;99.90;;;;;;5056937;28;20005;-60
2022/01/10 00:23:23;;;;;;;;;;;5.50;99.90;;;;;;5052312;28;19912;-60
2022/01/10 00:25:48;;;;;;;;;;;5.50;99.90;;;;;;5056791;28;19912;-58
2022/01/10 00:28:14;;;;;;;;;;;5.60;99.90;;;;;;5058269;28;20369;-60
2022/01/10 00:30:39;;;;;;;;;;;5.60;99.90;;;;;;5062962;28;19919;-60
2022/01/10 00:33:05;;;;;;;;;;;5.60;99.90;;;;;;5056872;28;19920;-61
2022/01/10 00:35:30;;;;;;;;;;;5.60;99.90;;;;;;5053254;28;19954;-61
2022/01/10 00:37:55;;;;;;;;;;;5.60;99.90;;;;;;5071910;28;19919;-58
2022/01/10 00:40:21;;;;;;;;;;;5.60;99.90;;;;;;5057281;28;19916;-61
2022/01/10 00:42:55;;;;;;;;;;;5.60;99.90;;;;;;5056536;28;19912;-61
2022/01/10 00:45:25;;;;;;;;;;;5.60;99.90;;;;;;5062996;28;19966;-58
2022/01/10 00:47:51;;;;;;;;;;;5.60;99.90;;;;;;5068188;28;19924;-61
2022/01/10 00:50:17;;;;;;;;;;;5.60;99.90;;;;;;5053549;28;19921;-61
2022/01/10 00:52:43;;;;;;;;;;;5.60;99.90;;;;;;5067822;28;19950;-60
2022/01/10 00:55:09;;;;;;;;;;;5.60;99.90;;;;;;5058570;28;19923;-59
2022/01/10 00:57:34;;;;;;;;;;;5.70;99.90;;;;;;5062286;28;19977;-59
2022/01/10 01:00:00;;;;;;;;;;;5.70;99.90;;;;;;5056759;28;19923;-60
2022/01/10 01:02:31;;;;;;;;;;;5.70;99.90;;;;;;5052256;28;20334;-60
2022/01/10 01:04:58;;;;;;;;;;;5.70;99.90;;;;;;5068466;28;20291;-61
2022/01/10 01:07:23;;;;;;;;;;;5.70;99.90;;;;;;5065279;28;20385;-60
2022/01/10 01:09:59;;;;;;;;;;;5.70;99.90;;;;;;5060986;28;19917;-60
2022/01/10 01:12:41;;;;;;;;;;;5.70;99.90;;;;;;5059496;28;19912;-59
2022/01/10 01:15:19;;;;;;;;;;;5.70;99.90;;;;;;5067282;28;19912;-60
2022/01/10 01:25:53;;;;;;;;;;;5.80;99.90;;;;;;5048773;28;19916;-59
2022/01/10 01:28:18;;;;;;;;;;;5.80;99.90;;;;;;5045287;28;20312;-59
2022/01/10 01:30:44;;;;;;;;;;;5.80;99.90;;;;;;5045594;28;19913;-61
2022/01/10 01:33:10;;;;;;;;;;;5.80;99.90;;;;;;5045664;28;19995;-60
2022/01/10 01:35:37;;;;;;;;;;;5.90;99.90;;;;;;5045415;28;20417;-61
2022/01/10 01:38:02;;;;;;;;;;;5.90;99.90;;;;;;5048003;28;19916;-61
2022/01/10 01:40:30;;;;;;;;;;;5.90;99.90;;;;;;5046259;28;19919;-61
2022/01/10 01:42:55;;;;;;;;;;;5.90;99.90;;;;;;5045461;28;19921;-59
2022/01/10 01:45:35;;;;;;;;;;;5.90;99.90;;;;;;5045076;28;19965;-60
2022/01/10 01:48:00;;;;;;;;;;;5.90;99.90;;;;;;5061740;28;19921;-61
2022/01/10 01:50:26;;;;;;;;;;;5.90;99.90;;;;;;5030001;28;20381;-61
2022/01/10 01:52:51;;;;;;;;;;;5.90;99.90;;;;;;5048265;28;19909;-61
2022/01/10 01:55:17;;;;;;;;;;;5.90;99.90;;;;;;5044703;28;20385;-60
2022/01/10 01:57:42;;;;;;;;;;;5.90;99.90;;;;;;5056351;28;19917;-59
2022/01/10 02:00:08;;;;;;;;;;;5.90;99.90;;;;;;5055665;28;19913;-61
2022/01/10 02:02:33;;;;;;;;;;;5.90;99.90;;;;;;5053251;28;19927;-60
2022/01/10 02:04:59;;;;;;;;;;;5.90;99.90;;;;;;5066913;28;19932;-61
2022/01/10 02:07:24;;;;;;;;;;;5.90;99.90;;;;;;5088303;28;19909;-61
2022/01/10 02:09:50;;;;;;;;;;;5.90;99.90;;;;;;5059194;28;19916;-61
2022/01/10 02:12:15;;;;;;;;;;;6.00;99.90;;;;;;5065263;28;20396;-61
2022/01/10 02:14:46;;;;;;;;;;;6.00;99.90;;;;;;5053330;28;19944;-62
2022/01/10 02:17:14;;;;;;;;;;;6.00;99.90;;;;;;5052828;28;20547;-61
2022/01/10 02:19:39;;;;;;;;;;;6.00;99.90;;;;;;5055148;28;19971;-60
2022/01/10 02:22:05;;;;;;;;;;;5.90;99.90;;;;;;5056077;28;20316;-62
2022/01/10 02:24:30;;;;;;;;;;;5.90;99.90;;;;;;5056345;28;19912;-60
2022/01/10 02:26:56;;;;;;;;;;;5.90;99.90;;;;;;5058928;28;20293;-59
2022/01/10 02:29:21;;;;;;;;;;;5.90;99.90;;;;;;5055793;28;19913;-60
2022/01/10 02:31:47;;;;;;;;;;;5.90;99.90;;;;;;5073668;28;19908;-61
2022/01/10 02:34:18;;;;;;;;;;;5.90;99.90;;;;;;5060535;28;20354;-61
2022/01/10 02:36:43;;;;;;;;;;;5.90;99.90;;;;;;5060887;28;19920;-61
2022/01/10 02:39:10;;;;;;;;;;;5.80;99.90;;;;;;5058920;28;20443;-61
2022/01/10 02:41:37;;;;;;;;;;;5.80;99.90;;;;;;5055875;28;19925;-60
2022/01/10 02:44:05;;;;;;;;;;;5.80;99.90;;;;;;5057247;28;20007;-61
2022/01/10 02:46:31;;;;;;;;;;;5.80;99.90;;;;;;5068653;28;19939;-60
2022/01/10 02:48:57;;;;;;;;;;;5.70;99.90;;;;;;5067735;28;19923;-61
2022/01/10 02:51:23;;;;;;;;;;;5.70;99.90;;;;;;5067127;28;19913;-60
2022/01/10 02:53:49;;;;;;;;;;;5.70;99.90;;;;;;5057743;28;19920;-61
2022/01/10 02:56:14;;;;;;;;;;;5.70;99.90;;;;;;5056282;28;20055;-61
2022/01/10 02:58:40;;;;;;;;;;;5.60;99.90;;;;;;5058496;28;20374;-61
2022/01/10 03:01:05;;;;;;;;;;;5.60;99.90;;;;;;5059009;28;19924;-59
2022/01/10 03:03:31;;;;;;;;;;;5.60;99.90;;;;;;5058975;28;19958;-61
2022/01/10 03:05:58;;;;;;;;;;;5.60;99.90;;;;;;5058093;28;19938;-61
2022/01/10 03:08:25;;;;;;;;;;;5.50;99.90;;;;;;5055243;28;19913;-60
2022/01/10 03:10:50;;;;;;;;;;;5.50;99.90;;;;;;5058353;28;19916;-60
2022/01/10 03:13:15;;;;;;;;;;;5.50;99.90;;;;;;5058633;28;19913;-60
2022/01/10 03:15:41;;;;;;;;;;;5.40;99.90;;;;;;5061671;28;20265;-61
2022/01/10 03:18:06;;;;;;;;;;;5.40;99.90;;;;;;5068991;28;19921;-60
2022/01/10 03:20:32;;;;;;;;;;;5.40;99.90;;;;;;5054441;28;20344;-61
2022/01/10 03:22:57;;;;;;;;;;;5.30;99.90;;;;;;5057596;28;19909;-59
2022/01/10 03:25:23;;;;;;;;;;;5.30;99.90;;;;;;5058745;28;19939;-60
2022/01/10 03:27:48;;;;;;;;;;;5.30;99.90;;;;;;5061929;28;20308;-60
2022/01/10 03:30:15;;;;;;;;;;;5.30;99.90;;;;;;5068050;28;19913;-61
2022/01/10 03:32:42;;;;;;;;;;;5.30;99.90;;;;;;5055615;28;19921;-60
2022/01/10 03:35:07;;;;;;;;;;;5.30;99.90;;;;;;5055506;28;19915;-60
2022/01/10 03:37:33;;;;;;;;;;;5.30;99.90;;;;;;5067018;28;19909;-60
2022/01/10 03:39:58;;;;;;;;;;;5.30;99.90;;;;;;5064589;28;19925;-61
2022/01/10 03:42:24;;;;;;;;;;;5.30;99.90;;;;;;5066250;28;19917;-59
2022/01/10 03:44:49;;;;;;;;;;;5.30;99.90;;;;;;5056463;28;19923;-61
2022/01/10 03:47:18;;;;;;;;;;;5.30;99.90;;;;;;5055092;28;20007;-62
2022/01/10 03:49:43;;;;;;;;;;;5.30;99.90;;;;;;5057919;28;19920;-60
2022/01/10 03:52:09;;;;;;;;;;;5.30;99.90;;;;;;5057889;28;19909;-61
2022/01/10 03:54:34;;;;;;;;;;;5.30;99.90;;;;;;5059577;28;19932;-61
2022/01/10 03:57:00;;;;;;;;;;;5.30;99.90;;;;;;5069295;28;19908;-62
2022/01/10 03:59:25;;;;;;;;;;;5.30;99.90;;;;;;5053329;28;19928;-61
2022/01/10 04:01:52;;;;;;;;;;;5.20;99.90;;;;;;5057379;28;19909;-61
2022/01/10 04:04:17;;;;;;;;;;;5.20;99.90;;;;;;5057242;28;20365;-61
2022/01/10 04:06:43;;;;;;;;;;;5.20;99.90;;;;;;5061088;28;19919;-61
2022/01/10 04:09:09;;;;;;;;;;;5.20;99.90;;;;;;5068360;28;20404;-60
2022/01/10 04:11:35;;;;;;;;;;;5.20;99.90;;;;;;5069234;28;19920;-61
2022/01/10 04:14:00;;;;;;;;;;;5.20;99.90;;;;;;5055827;28;20267;-60
2022/01/10 04:16:26;;;;;;;;;;;5.20;99.90;;;;;;5057991;28;20280;-59
2022/01/10 04:18:51;;;;;;;;;;;5.20;99.90;;;;;;5057110;28;19917;-60
2022/01/10 04:21:17;;;;;;;;;;;5.20;99.90;;;;;;5054536;28;20318;-59
2022/01/10 04:23:42;;;;;;;;;;;5.10;99.90;;;;;;5068780;28;19915;-60
2022/01/10 04:26:08;;;;;;;;;;;5.10;99.90;;;;;;5054920;28;19963;-61
2022/01/10 04:28:33;;;;;;;;;;;5.10;99.90;;;;;;5057445;28;19912;-60
2022/01/10 04:30:59;;;;;;;;;;;5.00;99.90;;;;;;5057187;28;20428;-59
2022/01/10 04:33:29;;;;;;;;;;;5.10;99.90;;;;;;5057728;28;20373;-59
2022/01/10 04:35:55;;;;;;;;;;;5.10;99.90;;;;;;5068439;28;19913;-60
2022/01/10 04:38:20;;;;;;;;;;;5.00;99.90;;;;;;5053666;28;19921;-60
2022/01/10 04:40:46;;;;;;;;;;;5.00;99.90;;;;;;5067017;28;19966;-60
2022/01/10 04:43:11;;;;;;;;;;;5.00;99.90;;;;;;5063252;28;19934;-60
2022/01/10 04:45:37;;;;;;;;;;;5.00;99.90;;;;;;5063397;28;19966;-61
2022/01/10 04:48:03;;;;;;;;;;;4.90;99.90;;;;;;5055286;28;19921;-61
2022/01/10 04:53:03;;;;;;;;;;;4.90;99.90;;;;;;5068425;28;19961;-61
2022/01/10 04:55:29;;;;;;;;;;;4.90;99.90;;;;;;5056958;28;20394;-61
2022/01/10 04:57:54;;;;;;;;;;;4.80;99.90;;;;;;5056275;28;19920;-60
2022/01/10 05:00:20;;;;;;;;;;;4.80;99.90;;;;;;5057510;28;19938;-58
2022/01/10 05:02:47;;;;;;;;;;;4.80;99.90;;;;;;5054175;28;19962;-60
2022/01/10 05:05:13;;;;;;;;;;;4.70;99.90;;;;;;5054209;28;19966;-60
2022/01/10 05:07:38;;;;;;;;;;;4.70;99.90;;;;;;5055889;28;19982;-60
2022/01/10 05:10:04;;;;;;;;;;;4.70;99.90;;;;;;5056936;28;19920;-59
2022/01/10 05:12:29;;;;;;;;;;;4.70;99.90;;;;;;5057305;28;19917;-60
2022/01/10 05:14:55;;;;;;;;;;;4.70;99.90;;;;;;5067990;28;19912;-60
2022/01/10 05:17:22;;;;;;;;;;;4.70;99.90;;;;;;5065775;28;19916;-60
2022/01/10 05:19:48;;;;;;;;;;;4.70;99.90;;;;;;5066865;28;20391;-60
2022/01/10 05:22:13;;;;;;;;;;;4.70;99.90;;;;;;5057900;28;19913;-60
2022/01/10 05:24:39;;;;;;;;;;;4.60;99.90;;;;;;5058657;28;19912;-59
2022/01/10 05:27:05;;;;;;;;;;;4.70;99.90;;;;;;5066186;28;20003;-59
2022/01/10 05:29:30;;;;;;;;;;;4.70;99.90;;;;;;5052207;28;20366;-59
2022/01/10 05:31:56;;;;;;;;;;;4.70;99.90;;;;;;5055266;28;20010;-59
2022/01/10 05:34:21;;;;;;;;;;;4.70;99.90;;;;;;5055947;28;19942;-61
2022/01/10 05:36:47;;;;;;;;;;;4.70;99.90;;;;;;5056364;28;19916;-60
2022/01/10 05:39:12;;;;;;;;;;;4.70;99.90;;;;;;5055768;28;19942;-60
2022/01/10 05:41:38;;;;;;;;;;;4.70;99.90;;;;;;5052714;28;19920;-61
2022/01/10 05:44:04;;;;;;;;;;;4.70;99.90;;;;;;5054166;28;20289;-61
2022/01/10 05:46:30;;;;;;;;;;;4.70;99.90;;;;;;5055978;28;19913;-60
2022/01/10 05:49:00;;;;;;;;;;;4.70;99.90;;;;;;5055820;28;19928;-59
2022/01/10 05:51:32;;;;;;;;;;;4.60;99.90;;;;;;5058256;28;19912;-60
2022/01/10 05:53:58;;;;;;;;;;;4.60;99.90;;;;;;5055456;28;20381;-62
2022/01/10 05:56:24;;;;;;;;;;;4.60;99.90;;;;;;5052838;28;19913;-60
2022/01/10 05:58:50;;;;;;;;;;;4.60;99.90;;;;;;5066401;28;20064;-61
2022/01/10 06:01:16;;;;;;;;;;;4.60;99.90;;;;;;5056317;28;20363;-58
2022/01/10 06:03:41;;;;;;;;;;;4.60;99.90;;;;;;5058240;28;19997;-60
2022/01/10 06:06:07;;;;;;;;;;;4.60;99.90;;;;;;5066658;28;19917;-59
2022/01/10 06:08:32;;;;;;;;;;;4.60;99.90;;;;;;5051663;28;19963;-59
2022/01/10 06:10:58;;;;;;;;;;;4.60;99.90;;;;;;5055193;28;19928;-60
2022/01/10 06:13:23;;;;;;;;;;;4.60;99.90;;;;;;5070816;28;19917;-60
2022/01/10 06:15:49;;;;;;;;;;;4.60;99.90;;;;;;5061170;28;20408;-60
2022/01/10 06:18:14;;;;;;;;;;;4.50;99.90;;;;;;5065032;28;19922;-61
2022/01/10 06:20:40;;;;;;;;;;;4.60;99.90;;;;;;5059475;28;19919;-60
2022/01/10 06:23:05;;;;;;;;;;;4.50;99.90;;;;;;5053625;28;19959;-61
2022/01/10 06:25:31;;;;;;;;;;;4.50;99.90;;;;;;5067373;28;19916;-60
2022/01/10 06:27:57;;;;;;;;;;;4.50;99.90;;;;;;5059559;28;19917;-60
2022/01/10 06:30:23;;;;;;;;;;;4.50;99.90;;;;;;5055156;28;20019;-61
2022/01/10 06:32:49;;;;;;;;;;;4.50;99.90;;;;;;5066687;28;20296;-61
2022/01/10 06:35:15;;;;;;;;;;;4.40;99.90;;;;;;5052326;28;20000;-59
2022/01/10 06:37:40;;;;;;;;;;;4.50;99.90;;;;;;5065942;28;19958;-61
2022/01/10 06:40:06;;;;;;;;;;;4.50;99.90;;;;;;5058328;28;19916;-61
2022/01/10 06:42:32;;;;;;;;;;;4.50;99.90;;;;;;5056510;28;19952;-60
2022/01/10 06:44:58;;;;;;;;;;;4.50;99.90;;;;;;5066708;28;19970;-61
2022/01/10 06:47:23;;;;;;;;;;;4.50;99.90;;;;;;5069765;28;20013;-59
2022/01/10 06:49:48;;;;;;;;;;;4.50;99.90;;;;;;5054501;28;19913;-62
2022/01/10 06:52:14;;;;;;;;;;;4.60;99.90;;;;;;5061214;28;19959;-61
2022/01/10 06:54:40;;;;;;;;;;;4.60;99.90;;;;;;5078271;28;19916;-62
2022/01/10 06:57:06;;;;;;;;;;;4.70;99.90;;;;;;5073887;28;19955;-68
2022/01/10 06:59:31;;;;;;;;;;;4.70;99.90;;;;;;5057568;28;19927;-69
2022/01/10 07:01:58;;;;;;;;;;;4.70;99.90;;;;;;5054882;28;19962;-63
2022/01/10 07:04:24;;;;;;;;;;;4.80;99.90;;;;;;5063822;28;19913;-64
2022/01/10 07:06:49;;;;;;;;;;;4.80;99.90;;;;;;5055423;28;19916;-63
2022/01/10 07:09:15;;;;;;;;;;;4.80;99.90;;;;;;5062264;28;19923;-64
2022/01/10 07:11:40;;;;;;;;;;;4.80;99.90;;;;;;5080090;28;19913;-64
2022/01/10 07:14:06;;;;;;;;;;;4.90;99.90;;;;;;5072606;28;19966;-63
2022/01/10 07:16:32;;;;;;;;;;;4.90;99.90;;;;;;5069762;28;19920;-65
2022/01/10 07:18:57;;;;;;;;;;;4.90;99.90;;;;;;5068305;28;19917;-64
2022/01/10 07:21:23;;;;;;;;;;;4.90;99.90;;;;;;5060154;28;20106;-64
2022/01/10 07:23:48;;;;;;;;;;;4.90;99.90;;;;;;5057305;28;19916;-64
2022/01/10 07:26:14;;;;;;;;;;;4.90;99.90;;;;;;5057120;28;20433;-64
2022/01/10 07:28:40;;;;;;;;;;;4.90;99.90;;;;;;5059736;28;19917;-61
2022/01/10 07:31:06;;;;;;;;;;;4.90;99.90;;;;;;5062640;28;20010;-62
2022/01/10 07:33:31;;;;;;;;;;;4.90;99.90;;;;;;5060617;28;19916;-64
2022/01/10 07:35:56;;;;;;;;;;;4.90;99.90;;;;;;5060381;28;19923;-64
2022/01/10 07:38:23;;;;;;;;;;;4.80;99.90;;;;;;5058404;28;19951;-64
2022/01/10 07:40:49;;;;;;;;;;;4.80;99.90;;;;;;5060666;28;19939;-63
2022/01/10 07:43:14;;;;;;;;;;;4.80;99.90;;;;;;5059733;28;19916;-61
2022/01/10 07:45:40;;;;;;;;;;;4.80;99.90;;;;;;5061926;28;19917;-62
2022/01/10 07:48:05;;;;;;;;;;;4.80;99.90;;;;;;5060025;28;20459;-64
2022/01/10 07:50:31;;;;;;;;;;;4.70;99.90;;;;;;5056748;28;19917;-63
2022/01/10 07:52:56;;;;;;;;;;;4.70;99.90;;;;;;5061882;28;20007;-62
2022/01/10 07:55:22;;;;;;;;;;;4.60;99.90;;;;;;5062096;28;19956;-63
2022/01/10 07:57:47;;;;;;;;;;;4.60;99.90;;;;;;5061228;28;19958;-61
2022/01/10 08:00:13;;;;;;;;;;;4.50;99.90;;;;;;5060577;28;19930;-64
2022/01/10 08:02:39;;;;;;;;;;;4.50;99.90;;;;;;5060371;28;20412;-64
2022/01/10 08:05:07;;;;;;;;;;;4.50;99.90;;;;;;5059635;28;19912;-64
2022/01/10 08:07:32;;;;;;;;;;;4.50;99.90;;;;;;5058029;28;19944;-63
2022/01/10 08:09:58;;;;;;;;;;;4.50;99.90;;;;;;5059098;28;19952;-64
2022/01/10 08:12:23;;;;;;;;;;;4.50;99.90;;;;;;5060224;28;19928;-64
2022/01/10 08:14:49;;;;;;;;;;;4.40;99.90;;;;;;5059428;28;20003;-63
2022/01/10 08:17:14;;;;;;;;;;;4.30;99.90;;;;;;5058044;28;19916;-63
2022/01/10 08:19:40;;;;;;;;;;;4.30;99.90;;;;;;5061190;28;19964;-64
2022/01/10 08:22:06;;;;;;;;;;;4.30;99.90;;;;;;5063780;28;20383;-62
2022/01/10 08:24:32;;;;;;;;;;;4.30;99.90;;;;;;5061684;28;19926;-65
2022/01/10 08:26:58;;;;;;;;;;;4.30;99.90;;;;;;5057835;28;19913;-64
2022/01/10 08:29:23;;;;;;;;;;;4.30;99.90;;;;;;5061059;28;20008;-63
2022/01/10 08:31:49;;;;;;;;;;;4.20;99.90;;;;;;5061819;28;19917;-63
2022/01/10 08:34:14;;;;;;;;;;;4.20;99.90;;;;;;5060838;28;19961;-64
2022/01/10 08:36:40;;;;;;;;;;;4.20;99.90;;;;;;5057304;28;19913;-64
2022/01/10 08:39:06;;;;;;;;;;;4.20;99.90;;;;;;5058303;28;19928;-62
2022/01/10 08:41:32;;;;;;;;;;;4.20;99.90;;;;;;5070329;28;20404;-64
2022/01/10 08:43:57;;;;;;;;;;;4.30;99.90;;;;;;5072452;28;20008;-63
2022/01/10 08:46:23;;;;;;;;;;;4.20;99.90;;;;;;5067269;28;19978;-63
2022/01/10 08:48:49;;;;;;;;;;;4.20;99.90;;;;;;5069791;28;19921;-62
2022/01/10 08:51:15;;;;;;;;;;;4.20;99.90;;;;;;5067368;28;19967;-64
2022/01/10 08:53:40;;;;;;;;;;;4.30;99.90;;;;;;5057996;28;19920;-62
2022/01/10 08:56:06;;;;;;;;;;;4.30;99.90;;;;;;5056996;28;19912;-64
2022/01/10 08:58:35;;;;;;;;;;;4.30;99.90;;;;;;5065521;28;19921;-64
2022/01/10 09:01:01;;;;;;;;;;;4.30;99.90;;;;;;5078055;28;19917;-64
2022/01/10 09:03:27;;;;;;;;;;;4.40;99.90;;;;;;5057863;28;19974;-64
2022/01/10 09:05:54;;;;;;;;;;;4.40;99.90;;;;;;5057579;28;19920;-62
2022/01/10 09:08:20;;;;;;;;;;;4.50;99.90;;;;;;5057511;28;19919;-63
2022/01/10 09:10:46;;;;;;;;;;;4.40;99.90;;;;;;5056378;28;20879;-63
2022/01/10 09:13:11;;;;;;;;;;;4.50;99.90;;;;;;5059259;28;19913;-63
2022/01/10 09:15:37;;;;;;;;;;;4.50;99.90;;;;;;5056372;28;20402;-63
2022/01/10 09:18:03;;;;;;;;;;;4.50;99.90;;;;;;5066617;28;19920;-62
2022/01/10 09:20:29;;;;;;;;;;;4.60;99.90;;;;;;5071301;28;19943;-63
2022/01/10 09:22:55;;;;;;;;;;;4.60;99.90;;;;;;5070383;28;20041;-63
2022/01/10 09:25:20;;;;;;;;;;;4.60;99.90;;;;;;5069734;28;19996;-61
2022/01/10 09:27:46;;;;;;;;;;;4.60;99.90;;;;;;5067920;28;20389;-61
2022/01/10 09:30:12;;;;;;;;;;;4.70;99.90;;;;;;5068941;28;19919;-62
2022/01/10 09:32:38;;;;;;;;;;;4.80;99.90;;;;;;5066792;28;19919;-63
2022/01/10 09:35:04;;;;;;;;;;;4.80;99.90;;;;;;5057389;28;19979;-62
2022/01/10 09:37:29;;;;;;;;;;;4.80;99.90;;;;;;5055236;28;19916;-62
2022/01/10 09:39:55;;;;;;;;;;;4.90;99.90;;;;;;5060716;28;19920;-63
2022/01/10 09:42:21;;;;;;;;;;;4.90;99.90;;;;;;5056040;28;19913;-63
2022/01/10 09:44:47;;;;;;;;;;;4.90;99.90;;;;;;5059422;28;19921;-64
2022/01/10 09:47:13;;;;;;;;;;;5.00;99.90;;;;;;5057781;28;20055;-66
2022/01/10 09:49:38;;;;;;;;;;;5.00;99.90;;;;;;5056729;28;19924;-63
2022/01/10 09:52:04;;;;;;;;;;;4.90;99.90;;;;;;5056591;28;19920;-63
2022/01/10 09:54:30;;;;;;;;;;;4.90;99.90;;;;;;5056628;28;20377;-62
2022/01/10 09:56:55;;;;;;;;;;;4.90;99.90;;;;;;5056531;28;20341;-61
2022/01/10 09:59:21;;;;;;;;;;;5.00;99.90;;;;;;5058154;28;19935;-63
2022/01/10 10:01:49;;;;;;;;;;;5.10;99.90;;;;;;5055457;28;19916;-63
2022/01/10 10:04:15;;;;;;;;;;;5.10;99.90;;;;;;5058514;28;19912;-62
2022/01/10 10:06:41;;;;;;;;;;;5.10;99.90;;;;;;5055781;28;19966;-64
2022/01/10 10:09:07;;;;;;;;;;;5.20;99.90;;;;;;5063912;28;19912;-63
2022/01/10 10:11:50;;;;;;;;;;;5.20;99.90;;;;;;5067173;28;19955;-63
2022/01/10 10:14:17;;;;;;;;;;;5.30;99.90;;;;;;5055490;28;20378;-62
2022/01/10 10:16:49;;;;;;;;;;;5.30;99.90;;;;;;5056993;28;19952;-64
2022/01/10 10:19:16;;;;;;;;;;;5.30;99.90;;;;;;5055299;28;19920;-63
2022/01/10 10:21:41;;;;;;;;;;;5.30;99.90;;;;;;5055366;28;20010;-61
2022/01/10 10:24:07;;;;;;;;;;;5.30;99.90;;;;;;5064076;28;19916;-64
2022/01/10 10:26:32;;;;;;;;;;;5.30;99.90;;;;;;5058542;28;19912;-62
2022/01/10 10:28:58;;;;;;;;;;;5.40;99.90;;;;;;5057630;28;19913;-65
2022/01/10 10:31:24;;;;;;;;;;;5.40;99.90;;;;;;5058288;28;19923;-65
2022/01/10 10:33:50;;;;;;;;;;;5.40;99.90;;;;;;5054260;28;19916;-63
2022/01/10 10:36:16;;;;;;;;;;;5.50;99.90;;;;;;5054720;28;19913;-62
2022/01/10 10:38:42;;;;;;;;;;;5.50;99.90;;;;;;5056501;28;19924;-64
2022/01/10 10:41:07;;;;;;;;;;;5.50;99.90;;;;;;5059861;28;19977;-62
2022/01/10 10:43:35;;;;;;;;;;;5.60;99.90;;;;;;5064511;28;19909;-64
2022/01/10 10:46:02;;;;;;;;;;;5.60;99.90;;;;;;5057097;28;19974;-64
2022/01/10 10:48:29;;;;;;;;;;;5.60;99.90;;;;;;5059675;28;19931;-62
2022/01/10 10:50:57;;;;;;;;;;;5.70;99.90;;;;;;5063855;28;20361;-62
2022/01/10 10:53:25;;;;;;;;;;;5.60;99.90;;;;;;5060869;28;19930;-63
2022/01/10 10:55:51;;;;;;;;;;;5.60;99.90;;;;;;5058229;28;20499;-64
2022/01/10 10:58:16;;;;;;;;;;;5.70;99.90;;;;;;5058980;28;19929;-62
2022/01/10 11:00:42;;;;;;;;;;;5.60;99.90;;;;;;5058151;28;19916;-63
2022/01/10 11:03:09;;;;;;;;;;;5.70;99.90;;;;;;5060736;28;19920;-63
2022/01/10 11:05:35;;;;;;;;;;;5.70;99.90;;;;;;5061143;28;19913;-63
2022/01/10 11:08:00;;;;;;;;;;;5.80;99.90;;;;;;5063750;28;19942;-64
2022/01/10 11:10:26;;;;;;;;;;;5.80;99.90;;;;;;5058070;28;19917;-65
2022/01/10 11:12:55;;;;;;;;;;;5.90;99.90;;;;;;5066624;28;19923;-63
2022/01/10 11:15:24;;;;;;;;;;;5.90;99.90;;;;;;5068471;28;19917;-64
2022/01/10 11:17:52;;;;;;;;;;;5.90;99.90;;;;;;5065102;28;19923;-62
2022/01/10 11:20:20;;;;;;;;;;;6.00;99.90;;;;;;5060266;28;19921;-62
2022/01/10 11:22:54;;;;;;;;;;;6.00;99.90;;;;;;5059213;28;20611;-61
2022/01/10 11:25:24;;;;;;;;;;;6.00;99.90;;;;;;5059420;28;19978;-62
2022/01/10 11:27:51;;;;;;;;;;;6.00;99.90;;;;;;5061209;28;19916;-63
2022/01/10 11:30:25;;;;;;;;;;;6.00;99.90;;;;;;5058927;28;19919;-62
2022/01/10 11:33:05;;;;;;;;;;;5.90;99.90;;;;;;5065406;28;19913;-62
2022/01/10 11:35:41;;;;;;;;;;;5.90;99.90;;;;;;5057861;28;19913;-64
2022/01/10 11:38:17;;;;;;;;;;;5.90;99.90;;;;;;5058286;28;19979;-65
2022/01/10 11:40:43;;;;;;;;;;;6.00;99.90;;;;;;5058661;28;19921;-64
2022/01/10 11:43:25;;;;;;;;;;;6.00;99.90;;;;;;5059408;28;19916;-64
2022/01/10 11:46:04;;;;;;;;;;;6.00;99.90;;;;;;5059105;28;19916;-62
2022/01/10 11:48:46;;;;;;;;;;;6.00;99.90;;;;;;5058266;28;20042;-63
2022/01/10 11:51:16;;;;;;;;;;;6.10;99.90;;;;;;5066465;28;20370;-62
2022/01/10 11:53:46;;;;;;;;;;;6.10;99.90;;;;;;5063338;28;20026;-64
2022/01/10 11:56:19;;;;;;;;;;;6.20;99.90;;;;;;5058154;28;19927;-62
2022/01/10 11:59:04;;;;;;;;;;;6.20;99.90;;;;;;5057551;28;20028;-63
2022/01/10 12:01:34;;;;;;;;;;;6.20;99.90;;;;;;5058780;28;19913;-64
2022/01/10 12:03:59;;;;;;;;;;;6.20;99.90;;;;;;5059516;28;20410;-62
2022/01/10 12:06:25;;;;;;;;;;;6.30;99.90;;;;;;5057290;28;20000;-63
2022/01/10 12:08:53;;;;;;;;;;;6.30;99.90;;;;;;5058921;28;19912;-62
2022/01/10 12:11:20;;;;;;;;;;;6.30;99.90;;;;;;5058594;28;19913;-62
2022/01/10 12:13:46;;;;;;;;;;;6.30;99.90;;;;;;5061686;28;19920;-62
2022/01/10 12:16:12;;;;;;;;;;;6.30;99.90;;;;;;5068769;28;19935;-62
2022/01/10 12:18:37;;;;;;;;;;;6.30;99.90;;;;;;5057483;28;20392;-62
2022/01/10 12:21:03;;;;;;;;;;;6.20;99.90;;;;;;5060352;28;19973;-61
2022/01/10 12:23:28;;;;;;;;;;;6.10;99.90;;;;;;5058496;28;20324;-63
2022/01/10 12:25:54;;;;;;;;;;;6.10;99.90;;;;;;5059904;28;19960;-61
2022/01/10 12:28:19;;;;;;;;;;;6.10;99.90;;;;;;5057801;28;19944;-63
2022/01/10 12:30:45;;;;;;;;;;;6.10;99.90;;;;;;5058225;28;20000;-62
2022/01/10 12:33:10;;;;;;;;;;;6.20;99.90;;;;;;5062431;28;19912;-62
2022/01/10 12:35:36;;;;;;;;;;;6.20;99.90;;;;;;5059583;28;19920;-64
2022/01/10 12:38:02;;;;;;;;;;;6.10;99.90;;;;;;5056400;28;19940;-63
2022/01/10 12:40:31;;;;;;;;;;;6.00;99.90;;;;;;5057324;28;19913;-63
2022/01/10 12:42:58;;;;;;;;;;;6.00;99.90;;;;;;5058246;28;20000;-63
2022/01/10 12:45:23;;;;;;;;;;;6.10;99.90;;;;;;5059269;28;19943;-64
2022/01/10 12:47:49;;;;;;;;;;;6.00;99.90;;;;;;5057677;28;20316;-62
2022/01/10 12:50:14;;;;;;;;;;;6.00;99.90;;;;;;5058584;28;20348;-64
2022/01/10 12:52:41;;;;;;;;;;;6.00;99.90;;;;;;5058780;28;20361;-63
2022/01/10 12:55:07;;;;;;;;;;;5.90;99.90;;;;;;5056778;28;20000;-62
2022/01/10 12:57:32;;;;;;;;;;;5.90;99.90;;;;;;5058022;28;20212;-63
2022/01/10 12:59:59;;;;;;;;;;;5.90;99.90;;;;;;5058762;28;20015;-64
2022/01/10 13:02:24;;;;;;;;;;;6.00;99.90;;;;;;5059248;28;19946;-63
2022/01/10 13:04:50;;;;;;;;;;;5.90;99.90;;;;;;5057823;28;20011;-64
2022/01/10 13:07:17;;;;;;;;;;;5.90;99.90;;;;;;5056534;28;20004;-63
2022/01/10 13:09:44;;;;;;;;;;;5.90;99.90;;;;;;5057222;28;19912;-63
2022/01/10 13:12:24;;;;;;;;;;;5.90;99.90;;;;;;5057218;28;19955;-64
2022/01/10 13:14:50;;;;;;;;;;;5.90;99.90;;;;;;5057741;28;19917;-65
2022/01/10 13:17:20;;;;;;;;;;;5.90;99.90;;;;;;5058715;28;19961;-63
2022/01/10 13:19:46;;;;;;;;;;;5.90;99.90;;;;;;5057020;28;19924;-62
2022/01/10 13:22:14;;;;;;;;;;;5.90;99.90;;;;;;5056931;28;19920;-63
2022/01/10 13:24:47;;;;;;;;;;;5.90;99.90;;;;;;5058494;28;19920;-63
2022/01/10 13:27:13;;;;;;;;;;;5.90;99.90;;;;;;5061192;28;19923;-64
2022/01/10 13:29:43;;;;;;;;;;;5.90;99.90;;;;;;5060066;28;19913;-64
2022/01/10 13:32:15;;;;;;;;;;;5.90;99.90;;;;;;5056888;28;19916;-63
2022/01/10 13:34:41;;;;;;;;;;;5.90;99.90;;;;;;5059705;28;20039;-64
2022/01/10 13:37:06;;;;;;;;;;;5.90;99.90;;;;;;5057527;28;20011;-63
2022/01/10 13:39:32;;;;;;;;;;;5.90;99.90;;;;;;5054770;28;19925;-64
2022/01/10 13:42:05;;;;;;;;;;;5.90;99.90;;;;;;5057741;28;19917;-64
2022/01/10 13:44:31;;;;;;;;;;;5.90;99.90;;;;;;5063738;28;19923;-63
2022/01/10 13:47:01;;;;;;;;;;;5.90;99.90;;;;;;5065860;28;19921;-63
2022/01/10 13:49:27;;;;;;;;;;;5.90;99.90;;;;;;5057836;28;19924;-63
2022/01/10 13:52:12;;;;;;;;;;;5.90;99.90;;;;;;5057053;28;20420;-65
2022/01/10 13:54:38;;;;;;;;;;;5.90;99.90;;;;;;5058607;28;19917;-64
2022/01/10 13:57:14;;;;;;;;;;;5.90;99.90;;;;;;5057095;28;19920;-64
2022/01/10 13:59:40;;;;;;;;;;;5.90;99.90;;;;;;5055769;28;19967;-63
2022/01/10 14:02:05;;;;;;;;;;;5.80;99.90;;;;;;5060128;28;19912;-63
2022/01/10 14:04:32;;;;;;;;;;;5.80;99.90;;;;;;5056401;28;19926;-67
2022/01/10 14:07:00;;;;;;;;;;;5.70;99.90;;;;;;5058980;28;19913;-63
2022/01/10 14:09:29;;;;;;;;;;;5.70;99.90;;;;;;5054781;28;19999;-64
2022/01/10 14:11:54;;;;;;;;;;;5.70;99.90;;;;;;5056576;28;19963;-64
2022/01/10 14:14:20;;;;;;;;;;;5.80;99.90;;;;;;5056130;28;19948;-65
2022/01/10 14:16:49;;;;;;;;;;;5.80;99.90;;;;;;5056165;28;20336;-64
2022/01/10 14:19:15;;;;;;;;;;;5.80;99.90;;;;;;5056002;28;19967;-64
2022/01/10 14:21:40;;;;;;;;;;;5.80;99.90;;;;;;5056834;28;19952;-63
2022/01/10 14:24:06;;;;;;;;;;;5.80;99.90;;;;;;5063347;28;20328;-63
2022/01/10 14:26:32;;;;;;;;;;;5.70;99.90;;;;;;5062210;28;19956;-63
2022/01/10 14:29:02;;;;;;;;;;;5.80;99.90;;;;;;5072128;28;19959;-62
2022/01/10 14:31:27;;;;;;;;;;;5.80;99.90;;;;;;5058849;28;19938;-64
2022/01/10 14:33:53;;;;;;;;;;;5.70;99.90;;;;;;5060726;28;20377;-62
2022/01/10 14:36:19;;;;;;;;;;;5.70;99.90;;;;;;5059884;28;20441;-63
2022/01/10 14:38:45;;;;;;;;;;;5.70;99.90;;;;;;5060732;28;19921;-63